• Join FlightAware (Why Join?)
  • Login
  • US Flag 
09:08PM EDT


 

Airport Tracker/Info


-or-


 

Live Flight TrackerFlight Track Log ✈ KAL1917 ✈ 18-Nov-2013 ✈ RKJK / KUV - RKPC / CJU

Flight Track Log - Related Links

Times and Time Zones

All times are in EST time to prevent confusion due to time zone crossing. See the KAL1917 flight status page for this flight to view local times or setup timezone preferences in your user account.

Time Position Orientation Groundspeed Altitude Reporting Facility
EST Latitude Longitude Course Direction KTS MPH feet Rate Location/Type
01:24AM 35.0157 126.5695 182° South  Level Estimated
01:25AM 34.9269 126.5649 182° South  Level Estimated
01:26AM 34.8381 126.5603 182° South  Level Estimated
01:27AM 34.7492 126.5557 182° South  Level Estimated
01:28AM 34.6604 126.5512 182° South  Level Estimated
01:29AM 34.5716 126.5466 182° South  Level Estimated
01:30AM 34.4828 126.5421 182° South  Level Estimated
01:31AM 34.3940 126.5375 182° South  Level Estimated
01:32AM 34.3052 126.5330 182° South  Level Estimated
01:33AM 34.2164 126.5285 182° South  Level Estimated
01:34AM 34.1276 126.5240 182° South  Level Estimated
01:35AM 34.0388 126.5195 182° South  Level Estimated
01:36AM 33.9500 126.5150 182° South  Level Estimated
01:37AM 33.8611 126.5106 182° South  Level Estimated
01:38AM 33.7723 126.5061 182° South  Level Estimated
01:39AM 33.6835 126.5016 182° South  Level Estimated
01:40AM 33.5947 126.4972 182° South  Level Estimated
01:41AM 33.5113 126.4930 182° South  Level Estimated
01:42AM 33.5113 126.4930 203° Southwest  Level Estimated
01:43AM 33.5113 126.4930 203° Southwest  Level Estimated
01:44AM 33.5113 126.4930 203° Southwest  Level Estimated
01:45AM 33.5113 126.4930 203° Southwest  Level Estimated
01:46AM 33.5113 126.4930 203° Southwest  Level Estimated
01:47AM 33.5113 126.4930 203° Southwest  Level Estimated
01:48AM 33.5113 126.4930 203° Southwest  Level Estimated
01:49AM 33.5113 126.4930 203° Southwest  Level Estimated